Hauptseite
METAR-TAF:

METAR-TAF

Flughäfen :

Flughafen Xi’an-Xianyang

Xi’an, China

Breite: 34-26N, Länge: 108-45E, Höhe: 479 m

Beobachtung

Neuester Wetterbericht von vor 46 Minuten, um 01:00 UTC
Wind 6 kt aus Südwest
Temperatur 28°C
Luftfeuchtigkeit 62%
Luftdruck 1007 hPa
Sichtweite 10 km oder mehr
keine Wolken unter 1500 m und keine Kumulonimbus oder Gewitterwolken

METAR: ZLXY 210100Z 23003MPS CAVOK 28/20 Q1007 NOSIG

Zeit: 09:46 (01:46 UTC)

Prognose

Neuester Wetterbericht von vor 6 Stunden und 35 Minuten, um 19:11 UTC
Gültige Prognose vom 21 um 00 UTC bis 21 um 24 UTC
Wind 6 kt aus Ost
Sichtweite: 6000 m

TAF: ZLXY 201911Z 2100/2124 08003MPS 6000 NSC TX38/2108Z TN27/2121Z

Wetterbeobachtungen und Prognosen von mehr als 4000 Flughäfen (METAR und TAF Bericht).

Die verfügbaren Stationen werden durch gelbe und rote Markierungen auf der Karte dargestellt.

Führen Sie die Maus auf sie, um den Namen der Station zu sehen.

Darauf klicken, um die Beobachtung von Wetterbeobachtungen und Prognosen zu sehen.

Um die Karte zu ändern : klicken Sie auf den grünen Tasten mit einem schwarzen Kreuz Zum Vergrößern, auf den grünen Button mit einem Gedankenstrich zu verkleinern, oder auf die grünen Pfeile für benachbarte Karten.


METAR-TAF: